createdAt,value
2022-08-17T00:00:33.322Z,57.57
2022-08-17T00:03:04.039Z,57.66
2022-08-17T00:05:35.481Z,58.02
2022-08-17T00:08:02.891Z,57.96
2022-08-17T00:10:29.811Z,58.14
2022-08-17T00:12:59.780Z,58.16
2022-08-17T00:15:26.711Z,58.19
2022-08-17T00:17:53.577Z,58.02
2022-08-17T00:20:20.660Z,57.96
2022-08-17T00:23:15.155Z,57.96
2022-08-17T00:25:43.608Z,58.01
2022-08-17T00:28:10.369Z,58.13
2022-08-17T00:30:51.223Z,58.31
2022-08-17T00:33:27.225Z,58.48
2022-08-17T00:35:55.545Z,58.26
2022-08-17T00:38:23.909Z,58.23
2022-08-17T00:40:59.163Z,58.35
2022-08-17T00:43:33.522Z,58.44
2022-08-17T00:46:02.202Z,58.66
2022-08-17T00:48:30.826Z,58.63
2022-08-17T00:51:13.251Z,58.40
2022-08-17T00:53:47.758Z,58.47
2022-08-17T00:56:19.111Z,58.76
2022-08-17T00:58:45.883Z,58.73
2022-08-17T01:01:21.615Z,58.77
2022-08-17T01:03:51.973Z,58.74
2022-08-17T01:06:20.795Z,59.02
2022-08-17T01:08:57.366Z,59.02
2022-08-17T01:11:24.658Z,58.96
2022-08-17T01:13:51.382Z,59.15
2022-08-17T01:16:31.035Z,59.20
2022-08-17T01:19:02.370Z,59.32
2022-08-17T01:21:36.818Z,59.40
2022-08-17T01:24:04.582Z,59.45
2022-08-17T01:26:35.725Z,59.34
2022-08-17T01:29:04.976Z,59.61
2022-08-17T01:31:37.397Z,59.87
2022-08-17T01:34:09.366Z,59.79
2022-08-17T01:36:38.817Z,59.45
2022-08-17T01:39:09.831Z,59.39
2022-08-17T01:41:38.219Z,59.66
2022-08-17T01:44:07.902Z,59.46
2022-08-17T01:46:37.295Z,59.55
2022-08-17T01:49:10.369Z,59.30
2022-08-17T01:51:37.857Z,59.50
2022-08-17T01:54:10.475Z,59.37
2022-08-17T01:56:41.098Z,59.47
2022-08-17T01:59:07.961Z,59.60
2022-08-17T02:01:35.961Z,59.48
2022-08-17T02:04:03.509Z,59.26
2022-08-17T02:06:45.275Z,59.64
2022-08-17T02:09:20.027Z,59.69
2022-08-17T02:11:50.387Z,59.49
2022-08-17T02:14:18.242Z,59.87
2022-08-17T02:16:45.221Z,60.04
2022-08-17T02:19:15.815Z,59.96
2022-08-17T02:21:47.064Z,59.95
2022-08-17T02:24:58.322Z,59.95
2022-08-17T02:27:07.048Z,60.42
2022-08-17T02:29:33.823Z,60.46
2022-08-17T02:32:01.988Z,60.72
2022-08-17T02:34:29.414Z,60.54
2022-08-17T02:36:56.336Z,60.49
2022-08-17T02:39:23.171Z,60.48
2022-08-17T02:41:50.133Z,60.36
2022-08-17T02:44:39.268Z,60.63
2022-08-17T02:47:04.420Z,60.37
2022-08-17T02:49:31.547Z,60.50
2022-08-17T02:51:58.695Z,60.78
2022-08-17T02:54:41.442Z,60.75
2022-08-17T02:57:12.250Z,60.87
2022-08-17T02:59:41.014Z,60.42
2022-08-17T03:02:11.878Z,60.35
2022-08-17T03:04:39.230Z,60.62
2022-08-17T03:07:07.061Z,60.80
2022-08-17T03:09:34.061Z,60.74
2022-08-17T03:12:18.801Z,60.70
2022-08-17T03:14:45.614Z,61.17
2022-08-17T03:17:15.899Z,61.30
2022-08-17T03:19:45.092Z,61.29
2022-08-17T03:22:35.442Z,61.29
2022-08-17T03:24:58.714Z,61.62
2022-08-17T03:27:25.630Z,61.17
2022-08-17T03:29:52.490Z,61.52
2022-08-17T03:32:20.906Z,61.87
2022-08-17T03:34:47.967Z,61.90
2022-08-17T03:37:15.486Z,62.05
2022-08-17T03:39:43.347Z,61.92
2022-08-17T03:42:31.792Z,61.97
2022-08-17T03:45:01.585Z,62.05
2022-08-17T03:47:47.423Z,61.88
2022-08-17T03:50:34.027Z,62.13
2022-08-17T03:53:21.911Z,62.26
2022-08-17T03:56:07.471Z,62.32
2022-08-17T03:58:34.179Z,62.35
2022-08-17T04:01:01.058Z,62.04
2022-08-17T04:03:27.959Z,62.22
2022-08-17T04:05:54.718Z,62.28
2022-08-17T04:08:21.579Z,62.11
2022-08-17T04:10:48.950Z,62.38
2022-08-17T04:13:15.830Z,62.40
2022-08-17T04:15:52.309Z,62.17
2022-08-17T04:18:19.588Z,62.12
2022-08-17T04:20:46.448Z,62.47
2022-08-17T04:23:18.557Z,62.45
2022-08-17T04:25:49.285Z,62.63
2022-08-17T04:28:18.450Z,62.70
2022-08-17T04:30:47.588Z,62.61
2022-08-17T04:33:18.017Z,62.56
2022-08-17T04:35:50.330Z,62.72
2022-08-17T04:38:20.122Z,62.58
2022-08-17T04:41:06.523Z,62.74
2022-08-17T04:43:34.745Z,62.72
2022-08-17T04:46:05.830Z,62.48
2022-08-17T04:48:37.436Z,62.55
2022-08-17T04:51:08.342Z,62.68
2022-08-17T04:53:35.323Z,62.64
2022-08-17T04:56:02.385Z,62.82
2022-08-17T04:58:29.161Z,62.79
2022-08-17T05:00:55.929Z,62.72
2022-08-17T05:03:22.670Z,62.92
2022-08-17T05:05:49.849Z,63.10
2022-08-17T05:08:19.657Z,62.87
2022-08-17T05:10:47.904Z,62.84
2022-08-17T05:13:25.083Z,62.59
2022-08-17T05:15:57.413Z,62.67
2022-08-17T05:18:24.918Z,63.06
2022-08-17T05:20:52.508Z,62.95
2022-08-17T05:23:21.643Z,63.20
2022-08-17T05:25:51.763Z,63.05
2022-08-17T05:28:22.921Z,63.00
2022-08-17T05:30:55.882Z,63.20
2022-08-17T05:33:29.888Z,63.41
2022-08-17T05:35:58.952Z,63.32
2022-08-17T05:38:27.689Z,63.43
2022-08-17T05:40:55.872Z,63.70
2022-08-17T05:43:31.435Z,63.52
2022-08-17T05:45:58.068Z,63.61
2022-08-17T05:48:35.444Z,63.19
2022-08-17T05:51:45.411Z,63.19
2022-08-17T05:54:27.342Z,63.24
2022-08-17T05:57:07.697Z,63.50
2022-08-17T06:00:20.371Z,63.05
2022-08-17T06:03:05.307Z,63.41
2022-08-17T06:05:54.550Z,63.45
2022-08-17T06:08:32.245Z,63.51
2022-08-17T06:11:27.307Z,63.54
2022-08-17T06:14:16.359Z,63.80
2022-08-17T06:16:48.148Z,63.61
2022-08-17T06:19:33.755Z,63.36
2022-08-17T06:22:02.802Z,63.19
2022-08-17T06:24:50.234Z,63.00
2022-08-17T06:27:20.020Z,63.06
2022-08-17T06:29:57.009Z,63.19
2022-08-17T06:32:25.211Z,63.12
2022-08-17T06:34:53.501Z,63.08
2022-08-17T06:37:27.530Z,62.90
2022-08-17T06:40:12.412Z,62.98
2022-08-17T06:43:00.819Z,62.85
2022-08-17T06:45:42.841Z,63.19
2022-08-17T06:48:25.029Z,63.28
2022-08-17T06:51:10.759Z,63.23
2022-08-17T06:53:45.820Z,63.46
2022-08-17T06:56:22.218Z,63.18
2022-08-17T06:58:49.838Z,63.22
2022-08-17T07:01:27.179Z,63.22
2022-08-17T07:04:12.148Z,63.20
2022-08-17T07:06:51.598Z,63.15
2022-08-17T07:09:38.008Z,63.25
2022-08-17T07:12:18.838Z,62.86
2022-08-17T07:15:05.616Z,62.79
2022-08-17T07:17:46.447Z,63.12
2022-08-17T08:14:57.614Z,61.09
2022-08-17T08:17:31.093Z,60.70
2022-08-17T08:20:00.661Z,60.54
2022-08-17T08:22:59.878Z,60.35
2022-08-17T08:25:43.356Z,60.15
2022-08-17T08:28:21.526Z,60.12
2022-08-17T08:30:57.814Z,60.06
2022-08-17T08:33:29.760Z,59.35
2022-08-17T08:36:14.289Z,58.62
2022-08-17T08:39:06.711Z,58.48
2022-08-17T08:41:45.431Z,58.40
2022-08-17T08:45:00.282Z,58.09
2022-08-17T08:47:35.438Z,57.73
2022-08-17T08:50:38.159Z,57.61
2022-08-17T08:53:12.763Z,56.86
2022-08-17T08:55:52.054Z,56.42
2022-08-17T08:58:42.032Z,56.62
2022-08-17T09:01:30.516Z,55.97
2022-08-17T09:04:25.564Z,55.38
2022-08-17T09:07:39.545Z,55.73
2022-08-17T09:10:29.786Z,55.88
2022-08-17T09:13:09.624Z,55.15
2022-08-17T09:15:49.012Z,54.61
2022-08-17T09:19:00.039Z,54.04
2022-08-17T09:21:25.281Z,54.00
2022-08-17T09:24:25.803Z,52.77
2022-08-17T09:27:14.595Z,51.01
2022-08-17T09:29:59.800Z,51.78
2022-08-17T09:32:40.209Z,50.63
2022-08-17T09:35:20.974Z,51.22
2022-08-17T09:38:16.036Z,51.65
2022-08-17T09:41:00.161Z,50.99
2022-08-17T09:43:45.270Z,51.07
2022-08-17T09:46:20.711Z,49.77
2022-08-17T09:48:57.778Z,49.45
2022-08-17T09:51:40.322Z,49.88
2022-08-17T09:54:38.033Z,50.30
2022-08-17T09:57:29.893Z,49.16
2022-08-17T10:00:08.524Z,47.38
2022-08-17T10:03:00.677Z,47.97
2022-08-17T10:05:37.677Z,47.54
2022-08-17T10:08:10.472Z,46.87
2022-08-17T10:10:56.471Z,46.97
2022-08-17T10:13:41.778Z,45.59
2022-08-17T10:16:26.730Z,44.23
2022-08-17T10:19:02.240Z,45.01
2022-08-17T10:22:00.861Z,45.21
2022-08-17T10:25:23.759Z,44.27
2022-08-17T10:27:54.980Z,44.68
2022-08-17T10:30:26.847Z,43.72
2022-08-17T10:32:59.848Z,43.80
2022-08-17T10:35:36.456Z,43.91
2022-08-17T10:38:12.871Z,44.07
2022-08-17T10:41:17.391Z,44.21
2022-08-17T10:44:40.321Z,44.39
2022-08-17T10:46:57.258Z,43.69
2022-08-17T10:49:34.346Z,43.17
2022-08-17T10:52:22.000Z,41.97
2022-08-17T10:54:51.631Z,41.89
2022-08-17T10:57:37.366Z,41.32
2022-08-17T11:00:15.043Z,41.35
2022-08-17T11:02:48.897Z,41.02
2022-08-17T11:05:44.049Z,40.59
2022-08-17T11:08:46.037Z,40.40
2022-08-17T11:11:20.268Z,40.54
2022-08-17T11:13:49.696Z,39.89
2022-08-17T11:16:32.856Z,38.97
2022-08-17T11:19:26.641Z,38.36
2022-08-17T11:22:11.949Z,37.74
2022-08-17T11:24:51.852Z,37.99
2022-08-17T11:27:31.971Z,37.67
2022-08-17T11:30:07.387Z,37.84
2022-08-17T11:32:47.142Z,38.40
2022-08-17T11:35:20.837Z,38.37
2022-08-17T11:38:16.996Z,37.84
2022-08-17T11:41:01.936Z,36.65
2022-08-17T11:43:38.396Z,36.89
2022-08-17T11:46:57.942Z,36.68
2022-08-17T11:49:49.571Z,35.87
2022-08-17T11:52:40.999Z,35.64
2022-08-17T11:55:34.159Z,35.38
2022-08-17T11:58:23.434Z,34.58
2022-08-17T12:00:57.222Z,33.88
2022-08-17T12:03:34.576Z,34.59
2022-08-17T12:06:35.579Z,34.90
2022-08-17T12:09:11.064Z,34.98
2022-08-17T12:12:13.133Z,35.58
2022-08-17T12:17:50.258Z,34.72
2022-08-17T12:20:28.038Z,34.42
2022-08-17T12:23:18.941Z,33.90
2022-08-17T12:26:10.512Z,33.65
2022-08-17T12:28:44.036Z,33.66
2022-08-17T12:31:26.208Z,33.30
2022-08-17T12:33:53.247Z,33.57
2022-08-17T12:36:28.415Z,33.43
2022-08-17T12:39:14.877Z,33.59
2022-08-17T12:41:52.240Z,33.45
2022-08-17T12:44:23.347Z,33.88
2022-08-17T12:46:50.173Z,33.32
2022-08-17T12:49:41.604Z,33.01
2022-08-17T12:52:29.628Z,32.73
2022-08-17T12:55:02.150Z,31.84
2022-08-17T12:57:34.195Z,32.70
2022-08-17T13:00:16.830Z,32.12
2022-08-17T13:02:45.483Z,32.40
2022-08-17T13:05:23.012Z,32.38
2022-08-17T13:07:51.552Z,32.34
2022-08-17T13:10:27.419Z,33.06
2022-08-17T13:12:58.173Z,33.32
2022-08-17T13:15:38.410Z,33.16
2022-08-17T13:18:36.026Z,33.18
2022-08-17T13:21:02.916Z,32.74
2022-08-17T13:23:32.288Z,33.21
2022-08-17T13:26:08.089Z,32.78
2022-08-17T13:28:37.167Z,32.21
2022-08-17T13:31:33.233Z,32.33
2022-08-17T13:34:28.361Z,32.10
2022-08-17T13:37:30.329Z,31.99
2022-08-17T13:40:11.617Z,32.62
2022-08-17T13:42:50.411Z,32.22
2022-08-17T13:45:35.327Z,32.09
2022-08-17T13:48:15.994Z,32.35
2022-08-17T13:51:05.087Z,32.48
2022-08-17T13:53:34.103Z,32.41
2022-08-17T13:56:33.233Z,32.50
2022-08-17T13:59:36.092Z,32.36
2022-08-17T14:02:18.411Z,31.60
2022-08-17T14:04:47.315Z,31.43
2022-08-17T14:07:15.706Z,31.24
2022-08-17T14:09:57.444Z,31.41
2022-08-17T14:12:27.475Z,31.41
2022-08-17T14:14:56.561Z,31.62
2022-08-17T14:17:25.689Z,31.92
2022-08-17T14:19:53.035Z,31.50
2022-08-17T14:22:33.049Z,31.96
2022-08-17T14:25:04.107Z,32.08
2022-08-17T14:27:41.883Z,32.29
2022-08-17T14:30:30.311Z,32.29
2022-08-17T14:32:58.304Z,32.86
2022-08-17T14:35:28.285Z,32.80
2022-08-17T14:37:56.204Z,31.84
2022-08-17T14:40:25.211Z,32.49
2022-08-17T14:42:55.349Z,31.90
2022-08-17T14:45:31.838Z,32.10
2022-08-17T14:48:05.283Z,32.40
2022-08-17T14:50:35.512Z,32.45
2022-08-17T14:53:04.668Z,32.37
2022-08-17T14:55:32.700Z,32.32
2022-08-17T14:58:00.087Z,32.37
2022-08-17T15:00:28.784Z,32.18
2022-08-17T15:02:58.964Z,31.91
2022-08-17T15:05:31.763Z,32.46
2022-08-17T15:08:01.441Z,32.18
2022-08-17T15:10:29.432Z,32.62
2022-08-17T15:12:56.375Z,32.61
2022-08-17T15:15:24.285Z,32.74
2022-08-17T15:17:51.798Z,33.02
2022-08-17T15:20:23.994Z,32.84
2022-08-17T15:22:55.673Z,32.81
2022-08-17T15:25:24.836Z,32.82
2022-08-17T15:27:52.282Z,33.17
2022-08-17T15:30:20.339Z,32.64
2022-08-17T15:32:54.774Z,32.42
2022-08-17T15:35:27.995Z,32.61
2022-08-17T15:38:11.688Z,32.92
2022-08-17T15:40:42.822Z,32.88
2022-08-17T15:43:22.012Z,32.99
2022-08-17T15:46:12.421Z,32.42
2022-08-17T15:48:42.421Z,32.75
2022-08-17T15:51:19.899Z,32.51
2022-08-17T15:53:49.589Z,32.68
2022-08-17T15:56:19.911Z,33.05
2022-08-17T15:58:50.319Z,32.75
2022-08-17T16:03:01.640Z,32.82
2022-08-17T16:04:26.416Z,32.84
2022-08-17T16:06:53.877Z,32.89
2022-08-17T16:09:20.775Z,32.59
2022-08-17T16:11:52.161Z,32.67
2022-08-17T16:14:23.123Z,33.13
2022-08-17T16:16:51.120Z,33.43
2022-08-17T16:19:17.997Z,33.61
2022-08-17T16:21:44.896Z,33.29
2022-08-17T16:24:13.454Z,33.20
2022-08-17T16:26:41.659Z,33.67
2022-08-17T16:29:08.920Z,33.58
2022-08-17T16:31:41.960Z,33.84
2022-08-17T16:34:16.953Z,34.44
2022-08-17T16:36:55.491Z,34.56
2022-08-17T16:39:29.446Z,34.77
2022-08-17T16:41:57.170Z,35.19
2022-08-17T16:44:24.114Z,35.36
2022-08-17T16:46:51.586Z,35.70
2022-08-17T16:49:24.478Z,35.23
2022-08-17T16:52:04.502Z,35.84
2022-08-17T16:54:31.359Z,35.92
2022-08-17T16:56:58.157Z,36.16
2022-08-17T16:59:32.280Z,36.25
2022-08-17T17:02:12.615Z,36.37
2022-08-17T17:04:48.645Z,36.18
2022-08-17T17:07:58.935Z,36.63
2022-08-17T17:10:44.846Z,36.72
2022-08-17T17:13:20.198Z,36.74
2022-08-17T17:16:01.126Z,37.09
2022-08-17T17:18:46.462Z,37.23
2022-08-17T17:21:17.178Z,37.11
2022-08-17T17:24:01.880Z,37.01
2022-08-17T17:26:34.668Z,37.64
2022-08-17T17:29:47.880Z,37.20
2022-08-17T17:32:34.839Z,37.79
2022-08-17T17:35:09.941Z,37.86
2022-08-17T17:37:40.445Z,37.86
2022-08-17T17:40:21.681Z,37.59
2022-08-17T17:42:53.282Z,38.25
2022-08-17T17:45:31.518Z,38.12
2022-08-17T17:47:58.819Z,38.68
2022-08-17T17:50:37.037Z,38.26
2022-08-17T17:53:13.168Z,38.67
2022-08-17T17:56:29.662Z,38.84
2022-08-17T17:59:43.294Z,38.89
2022-08-17T18:02:51.956Z,39.22
2022-08-17T18:05:40.421Z,39.37
2022-08-17T18:08:19.332Z,39.89
2022-08-17T18:10:55.389Z,40.25
2022-08-17T18:13:40.684Z,40.24
2022-08-17T18:16:13.623Z,40.30
2022-08-17T18:18:44.799Z,40.15
2022-08-17T18:21:21.788Z,40.38
2022-08-17T18:24:03.831Z,40.03
2022-08-17T18:26:48.453Z,40.37
2022-08-17T18:29:26.522Z,40.10
2022-08-17T18:32:15.991Z,40.06
2022-08-17T18:34:47.931Z,39.90
2022-08-17T18:37:41.431Z,40.26
2022-08-17T18:40:17.867Z,40.41
2022-08-17T18:42:50.675Z,40.58
2022-08-17T18:45:41.233Z,40.36
2022-08-17T18:48:21.344Z,40.27
2022-08-17T18:50:48.682Z,40.48
2022-08-17T18:53:33.957Z,40.55
2022-08-17T18:56:26.588Z,40.61
2022-08-17T18:58:53.420Z,40.79
2022-08-17T19:01:22.002Z,41.11
2022-08-17T19:04:25.996Z,41.01
2022-08-17T19:07:23.465Z,41.21
2022-08-17T19:09:58.910Z,41.43
2022-08-17T19:12:35.371Z,41.74
2022-08-17T19:15:03.386Z,42.05
2022-08-17T19:17:41.052Z,42.12
2022-08-17T19:20:12.742Z,42.53
2022-08-17T19:22:49.956Z,42.15
2022-08-17T19:25:27.098Z,42.26
2022-08-17T19:28:15.371Z,42.16
2022-08-17T19:30:55.087Z,42.55
2022-08-17T19:33:22.583Z,42.40
2022-08-17T19:39:55.725Z,43.00
2022-08-17T19:42:37.384Z,42.68
2022-08-17T19:45:11.195Z,42.89
2022-08-17T19:48:03.395Z,43.45
2022-08-17T19:51:01.793Z,42.97
2022-08-17T19:54:02.066Z,43.02
2022-08-17T19:56:55.926Z,43.46
2022-08-17T20:00:02.473Z,42.91
2022-08-17T20:03:06.220Z,43.02
2022-08-17T20:06:11.026Z,42.86
2022-08-17T20:08:52.797Z,43.09
2022-08-17T20:11:31.789Z,43.66
2022-08-17T20:14:14.847Z,43.90
2022-08-17T20:16:42.312Z,44.13
2022-08-17T20:19:22.305Z,43.65
2022-08-17T20:22:18.094Z,44.17
2022-08-17T20:24:50.808Z,44.39
2022-08-17T20:27:31.561Z,44.42
2022-08-17T20:30:10.578Z,44.75
2022-08-17T20:32:55.736Z,44.58
2022-08-17T20:35:27.267Z,44.74
2022-08-17T20:38:02.406Z,44.92
2022-08-17T20:40:39.932Z,44.79
2022-08-17T20:43:37.663Z,44.89
2022-08-17T20:46:13.121Z,45.23
2022-08-17T20:48:46.996Z,45.40
2022-08-17T20:51:27.688Z,45.50
2022-08-17T20:53:54.433Z,45.45
2022-08-17T20:56:50.059Z,45.65
2022-08-17T20:59:26.351Z,45.66
2022-08-17T21:02:27.007Z,45.88
2022-08-17T21:04:57.451Z,45.99
2022-08-17T21:07:29.387Z,46.20
2022-08-17T21:10:36.574Z,45.99
2022-08-17T21:13:15.563Z,46.38
2022-08-17T21:15:42.504Z,45.56
2022-08-17T21:18:23.523Z,45.78
2022-08-17T21:21:02.615Z,45.19
2022-08-17T21:23:40.891Z,45.04
2022-08-17T21:26:30.402Z,45.37
2022-08-17T21:29:31.889Z,45.72
2022-08-17T21:31:59.471Z,45.75
2022-08-17T21:34:43.471Z,45.79
2022-08-17T21:37:23.700Z,45.74
2022-08-17T21:40:15.285Z,45.83
2022-08-17T21:42:58.532Z,45.37
2022-08-17T21:45:30.645Z,45.42
2022-08-17T21:48:32.465Z,45.32
2022-08-17T21:51:13.111Z,45.19
2022-08-17T21:53:50.733Z,45.12
2022-08-17T21:56:34.203Z,45.29
2022-08-17T21:59:14.735Z,45.52
2022-08-17T22:01:43.365Z,45.85
2022-08-17T22:04:11.752Z,45.95
2022-08-17T22:06:56.479Z,45.98
2022-08-17T22:09:27.000Z,46.22
2022-08-17T22:11:59.878Z,46.33
2022-08-17T22:14:52.868Z,46.76
2022-08-17T22:17:35.736Z,46.56
2022-08-17T22:20:21.406Z,46.78
2022-08-17T22:23:09.626Z,47.00
2022-08-17T22:25:39.868Z,47.14
2022-08-17T22:28:12.389Z,46.96
2022-08-17T22:30:58.798Z,47.34
2022-08-17T22:33:49.199Z,47.36
2022-08-17T22:36:25.275Z,46.91
2022-08-17T22:39:00.766Z,47.34
2022-08-17T22:41:32.466Z,47.32
2022-08-17T22:44:21.385Z,47.35
2022-08-17T22:47:18.981Z,47.14
2022-08-17T22:49:53.189Z,47.73
2022-08-17T22:52:57.625Z,47.35
2022-08-17T22:55:44.667Z,47.91
2022-08-17T22:58:37.509Z,47.87
2022-08-17T23:01:32.783Z,47.79
2022-08-17T23:04:10.129Z,48.56
2022-08-17T23:06:39.364Z,48.40
2022-08-17T23:09:08.148Z,48.35
2022-08-17T23:11:49.734Z,48.06
2022-08-17T23:14:19.978Z,47.75
2022-08-17T23:16:53.375Z,47.94
2022-08-17T23:19:21.650Z,48.24
2022-08-17T23:21:54.770Z,47.93
2022-08-17T23:24:25.499Z,48.41
2022-08-17T23:26:53.109Z,48.79
2022-08-17T23:29:23.243Z,48.93
2022-08-17T23:31:51.494Z,48.90
2022-08-17T23:34:19.112Z,49.40
2022-08-17T23:36:52.435Z,49.38
2022-08-17T23:39:27.436Z,49.39
2022-08-17T23:41:58.835Z,49.10
2022-08-17T23:44:26.996Z,49.08
2022-08-17T23:46:53.949Z,49.04
2022-08-17T23:49:21.232Z,49.35
2022-08-17T23:51:49.143Z,49.46
2022-08-17T23:54:44.002Z,49.58
2022-08-17T23:57:17.304Z,49.99
2022-08-17T23:59:44.718Z,50.11
